sensor_id;sensor_type;location;lat;lon;timestamp;P1;durP1;ratioP1;P2;durP2;ratioP2
23266;SDS011;11802;53.160;8.214;2023-02-28T00:00:33;13.50;;;5.53;;
23266;SDS011;11802;53.160;8.214;2023-02-28T00:03:00;8.73;;;5.70;;
23266;SDS011;11802;53.160;8.214;2023-02-28T00:05:27;10.87;;;6.60;;
23266;SDS011;11802;53.160;8.214;2023-02-28T00:07:53;11.23;;;7.00;;
23266;SDS011;11802;53.160;8.214;2023-02-28T00:10:20;13.17;;;6.27;;
23266;SDS011;11802;53.160;8.214;2023-02-28T00:12:48;11.33;;;6.60;;
23266;SDS011;11802;53.160;8.214;2023-02-28T00:15:15;9.87;;;6.40;;
23266;SDS011;11802;53.160;8.214;2023-02-28T00:17:41;12.70;;;7.87;;
23266;SDS011;11802;53.160;8.214;2023-02-28T00:20:07;12.67;;;7.40;;
23266;SDS011;11802;53.160;8.214;2023-02-28T00:22:34;11.63;;;7.10;;
23266;SDS011;11802;53.160;8.214;2023-02-28T00:25:02;14.00;;;7.40;;
23266;SDS011;11802;53.160;8.214;2023-02-28T00:27:28;12.97;;;7.23;;
23266;SDS011;11802;53.160;8.214;2023-02-28T00:29:54;11.43;;;7.70;;
23266;SDS011;11802;53.160;8.214;2023-02-28T00:32:20;14.20;;;7.97;;
23266;SDS011;11802;53.160;8.214;2023-02-28T00:34:45;12.20;;;7.83;;
23266;SDS011;11802;53.160;8.214;2023-02-28T00:37:11;13.20;;;7.57;;
23266;SDS011;11802;53.160;8.214;2023-02-28T00:39:37;12.30;;;7.27;;
23266;SDS011;11802;53.160;8.214;2023-02-28T00:42:04;13.17;;;6.53;;
23266;SDS011;11802;53.160;8.214;2023-02-28T00:44:30;12.57;;;7.10;;
23266;SDS011;11802;53.160;8.214;2023-02-28T00:46:56;11.13;;;7.00;;
23266;SDS011;11802;53.160;8.214;2023-02-28T00:49:22;12.40;;;8.20;;
23266;SDS011;11802;53.160;8.214;2023-02-28T00:51:48;12.87;;;7.77;;
23266;SDS011;11802;53.160;8.214;2023-02-28T00:54:14;11.40;;;6.97;;
23266;SDS011;11802;53.160;8.214;2023-02-28T00:56:39;10.07;;;6.63;;
23266;SDS011;11802;53.160;8.214;2023-02-28T00:59:05;10.43;;;6.97;;
23266;SDS011;11802;53.160;8.214;2023-02-28T01:01:30;11.33;;;7.00;;
23266;SDS011;11802;53.160;8.214;2023-02-28T01:03:57;12.13;;;6.90;;
23266;SDS011;11802;53.160;8.214;2023-02-28T01:06:22;16.10;;;7.17;;
23266;SDS011;11802;53.160;8.214;2023-02-28T01:08:48;16.27;;;7.70;;
23266;SDS011;11802;53.160;8.214;2023-02-28T01:11:15;12.67;;;7.47;;
23266;SDS011;11802;53.160;8.214;2023-02-28T01:13:41;12.73;;;7.20;;
23266;SDS011;11802;53.160;8.214;2023-02-28T01:16:08;13.00;;;7.17;;
23266;SDS011;11802;53.160;8.214;2023-02-28T01:18:34;15.33;;;7.50;;
23266;SDS011;11802;53.160;8.214;2023-02-28T01:21:10;11.63;;;7.50;;
23266;SDS011;11802;53.160;8.214;2023-02-28T01:23:38;13.27;;;6.90;;
23266;SDS011;11802;53.160;8.214;2023-02-28T01:26:08;11.77;;;6.93;;
23266;SDS011;11802;53.160;8.214;2023-02-28T01:28:37;14.50;;;7.70;;
23266;SDS011;11802;53.160;8.214;2023-02-28T01:31:02;12.27;;;7.07;;
23266;SDS011;11802;53.160;8.214;2023-02-28T01:33:29;10.40;;;6.70;;
23266;SDS011;11802;53.160;8.214;2023-02-28T01:35:59;11.83;;;7.07;;
23266;SDS011;11802;53.160;8.214;2023-02-28T01:38:38;12.50;;;7.27;;
23266;SDS011;11802;53.160;8.214;2023-02-28T01:41:04;12.47;;;6.93;;
23266;SDS011;11802;53.160;8.214;2023-02-28T01:46:09;12.93;;;7.60;;
23266;SDS011;11802;53.160;8.214;2023-02-28T01:48:37;14.07;;;8.00;;
23266;SDS011;11802;53.160;8.214;2023-02-28T01:51:07;11.87;;;7.30;;
23266;SDS011;11802;53.160;8.214;2023-02-28T01:53:38;14.87;;;7.33;;
23266;SDS011;11802;53.160;8.214;2023-02-28T01:56:12;12.20;;;7.80;;
23266;SDS011;11802;53.160;8.214;2023-02-28T01:58:45;11.37;;;7.07;;
23266;SDS011;11802;53.160;8.214;2023-02-28T02:01:16;14.87;;;7.57;;
23266;SDS011;11802;53.160;8.214;2023-02-28T02:03:55;14.23;;;7.87;;
23266;SDS011;11802;53.160;8.214;2023-02-28T02:06:37;13.67;;;7.37;;
23266;SDS011;11802;53.160;8.214;2023-02-28T02:09:06;12.07;;;7.37;;
23266;SDS011;11802;53.160;8.214;2023-02-28T02:11:32;14.40;;;7.37;;
23266;SDS011;11802;53.160;8.214;2023-02-28T02:16:49;11.33;;;6.80;;
23266;SDS011;11802;53.160;8.214;2023-02-28T02:22:41;12.00;;;7.03;;
23266;SDS011;11802;53.160;8.214;2023-02-28T02:25:45;12.80;;;7.10;;
23266;SDS011;11802;53.160;8.214;2023-02-28T02:28:22;14.70;;;7.07;;
23266;SDS011;11802;53.160;8.214;2023-02-28T02:31:29;12.33;;;7.03;;
23266;SDS011;11802;53.160;8.214;2023-02-28T02:37:10;16.80;;;6.77;;
23266;SDS011;11802;53.160;8.214;2023-02-28T02:39:48;11.80;;;6.93;;
23266;SDS011;11802;53.160;8.214;2023-02-28T02:42:32;11.93;;;6.43;;
23266;SDS011;11802;53.160;8.214;2023-02-28T02:45:09;11.17;;;6.97;;
23266;SDS011;11802;53.160;8.214;2023-02-28T02:48:00;12.70;;;6.50;;
23266;SDS011;11802;53.160;8.214;2023-02-28T02:50:29;12.47;;;7.03;;
23266;SDS011;11802;53.160;8.214;2023-02-28T02:53:01;11.43;;;6.80;;
23266;SDS011;11802;53.160;8.214;2023-02-28T02:55:31;11.67;;;6.83;;
23266;SDS011;11802;53.160;8.214;2023-02-28T02:58:01;13.30;;;6.27;;
23266;SDS011;11802;53.160;8.214;2023-02-28T03:00:30;11.23;;;6.93;;
23266;SDS011;11802;53.160;8.214;2023-02-28T03:03:00;12.60;;;6.13;;
23266;SDS011;11802;53.160;8.214;2023-02-28T03:05:33;10.83;;;6.53;;
23266;SDS011;11802;53.160;8.214;2023-02-28T03:08:14;11.13;;;6.23;;
23266;SDS011;11802;53.160;8.214;2023-02-28T03:18:54;10.27;;;5.57;;
23266;SDS011;11802;53.160;8.214;2023-02-28T03:24:34;11.87;;;5.60;;
23266;SDS011;11802;53.160;8.214;2023-02-28T03:27:13;10.70;;;5.87;;
23266;SDS011;11802;53.160;8.214;2023-02-28T03:29:51;11.43;;;5.50;;
23266;SDS011;11802;53.160;8.214;2023-02-28T03:33:14;9.83;;;5.80;;
23266;SDS011;11802;53.160;8.214;2023-02-28T03:35:42;11.70;;;5.77;;
23266;SDS011;11802;53.160;8.214;2023-02-28T03:41:02;9.87;;;5.70;;
23266;SDS011;11802;53.160;8.214;2023-02-28T03:43:35;11.37;;;6.40;;
23266;SDS011;11802;53.160;8.214;2023-02-28T03:46:05;9.03;;;5.23;;
23266;SDS011;11802;53.160;8.214;2023-02-28T03:48:39;9.07;;;5.40;;
23266;SDS011;11802;53.160;8.214;2023-02-28T03:51:09;11.30;;;5.70;;
23266;SDS011;11802;53.160;8.214;2023-02-28T03:53:39;10.47;;;5.70;;
23266;SDS011;11802;53.160;8.214;2023-02-28T03:56:17;10.23;;;5.40;;
23266;SDS011;11802;53.160;8.214;2023-02-28T03:58:59;9.03;;;4.93;;
23266;SDS011;11802;53.160;8.214;2023-02-28T04:01:48;9.33;;;5.60;;
23266;SDS011;11802;53.160;8.214;2023-02-28T04:04:14;7.60;;;5.20;;
23266;SDS011;11802;53.160;8.214;2023-02-28T04:06:41;11.00;;;5.50;;
23266;SDS011;11802;53.160;8.214;2023-02-28T04:09:09;11.43;;;5.30;;
23266;SDS011;11802;53.160;8.214;2023-02-28T04:11:37;10.17;;;5.87;;
23266;SDS011;11802;53.160;8.214;2023-02-28T04:14:05;9.30;;;5.93;;
23266;SDS011;11802;53.160;8.214;2023-02-28T04:16:32;9.97;;;6.10;;
23266;SDS011;11802;53.160;8.214;2023-02-28T04:18:59;13.00;;;6.30;;
23266;SDS011;11802;53.160;8.214;2023-02-28T04:21:30;10.93;;;5.77;;
23266;SDS011;11802;53.160;8.214;2023-02-28T04:23:56;8.83;;;5.67;;
23266;SDS011;11802;53.160;8.214;2023-02-28T04:26:32;11.63;;;6.63;;
23266;SDS011;11802;53.160;8.214;2023-02-28T04:28:59;11.13;;;6.27;;
23266;SDS011;11802;53.160;8.214;2023-02-28T04:31:25;12.27;;;6.23;;
23266;SDS011;11802;53.160;8.214;2023-02-28T04:33:51;14.87;;;6.50;;
23266;SDS011;11802;53.160;8.214;2023-02-28T04:36:17;12.70;;;6.53;;
23266;SDS011;11802;53.160;8.214;2023-02-28T04:38:43;12.97;;;7.20;;
23266;SDS011;11802;53.160;8.214;2023-02-28T04:41:10;11.40;;;7.07;;
23266;SDS011;11802;53.160;8.214;2023-02-28T04:43:36;14.30;;;8.03;;
23266;SDS011;11802;53.160;8.214;2023-02-28T04:46:02;14.73;;;8.80;;
23266;SDS011;11802;53.160;8.214;2023-02-28T04:48:29;12.90;;;8.70;;
23266;SDS011;11802;53.160;8.214;2023-02-28T04:51:03;16.40;;;9.20;;
23266;SDS011;11802;53.160;8.214;2023-02-28T04:53:30;14.63;;;9.37;;
23266;SDS011;11802;53.160;8.214;2023-02-28T04:55:56;15.50;;;10.13;;
23266;SDS011;11802;53.160;8.214;2023-02-28T04:58:23;19.03;;;9.90;;
23266;SDS011;11802;53.160;8.214;2023-02-28T05:00:49;13.43;;;9.03;;
23266;SDS011;11802;53.160;8.214;2023-02-28T05:03:15;12.97;;;9.33;;
23266;SDS011;11802;53.160;8.214;2023-02-28T05:05:41;13.40;;;9.10;;
23266;SDS011;11802;53.160;8.214;2023-02-28T05:08:06;16.37;;;9.73;;
23266;SDS011;11802;53.160;8.214;2023-02-28T05:10:32;13.30;;;9.23;;
23266;SDS011;11802;53.160;8.214;2023-02-28T05:12:58;14.87;;;9.23;;
23266;SDS011;11802;53.160;8.214;2023-02-28T05:15:23;14.57;;;8.90;;
23266;SDS011;11802;53.160;8.214;2023-02-28T05:17:49;12.93;;;9.13;;
23266;SDS011;11802;53.160;8.214;2023-02-28T05:20:15;13.83;;;9.13;;
23266;SDS011;11802;53.160;8.214;2023-02-28T05:22:41;15.53;;;10.13;;
23266;SDS011;11802;53.160;8.214;2023-02-28T05:25:08;17.13;;;9.50;;
23266;SDS011;11802;53.160;8.214;2023-02-28T05:27:37;16.67;;;9.10;;
23266;SDS011;11802;53.160;8.214;2023-02-28T05:30:03;14.17;;;9.60;;
23266;SDS011;11802;53.160;8.214;2023-02-28T05:32:30;14.97;;;9.10;;
23266;SDS011;11802;53.160;8.214;2023-02-28T05:34:56;14.53;;;9.03;;
23266;SDS011;11802;53.160;8.214;2023-02-28T05:37:21;13.60;;;8.23;;
23266;SDS011;11802;53.160;8.214;2023-02-28T05:39:47;11.87;;;7.80;;
23266;SDS011;11802;53.160;8.214;2023-02-28T05:42:13;17.37;;;8.30;;
23266;SDS011;11802;53.160;8.214;2023-02-28T05:44:38;15.00;;;8.50;;
23266;SDS011;11802;53.160;8.214;2023-02-28T05:47:04;13.17;;;8.57;;
23266;SDS011;11802;53.160;8.214;2023-02-28T05:49:29;13.40;;;9.07;;
23266;SDS011;11802;53.160;8.214;2023-02-28T05:51:55;12.83;;;8.40;;
23266;SDS011;11802;53.160;8.214;2023-02-28T05:54:20;13.60;;;9.00;;
23266;SDS011;11802;53.160;8.214;2023-02-28T05:56:46;13.70;;;8.70;;
23266;SDS011;11802;53.160;8.214;2023-02-28T05:59:12;10.70;;;8.00;;
23266;SDS011;11802;53.160;8.214;2023-02-28T06:01:38;14.20;;;8.50;;
23266;SDS011;11802;53.160;8.214;2023-02-28T06:04:07;11.90;;;7.80;;
23266;SDS011;11802;53.160;8.214;2023-02-28T06:06:34;14.40;;;8.10;;
23266;SDS011;11802;53.160;8.214;2023-02-28T06:09:01;14.00;;;8.37;;
23266;SDS011;11802;53.160;8.214;2023-02-28T06:11:27;11.87;;;7.80;;
23266;SDS011;11802;53.160;8.214;2023-02-28T06:13:53;13.70;;;7.97;;
23266;SDS011;11802;53.160;8.214;2023-02-28T06:16:24;11.70;;;8.17;;
23266;SDS011;11802;53.160;8.214;2023-02-28T06:18:50;13.40;;;8.27;;
23266;SDS011;11802;53.160;8.214;2023-02-28T06:21:17;11.73;;;7.67;;
23266;SDS011;11802;53.160;8.214;2023-02-28T06:23:43;11.03;;;7.93;;
23266;SDS011;11802;53.160;8.214;2023-02-28T06:26:08;13.60;;;8.50;;
23266;SDS011;11802;53.160;8.214;2023-02-28T06:28:34;10.77;;;7.33;;
23266;SDS011;11802;53.160;8.214;2023-02-28T06:31:06;11.43;;;7.87;;
23266;SDS011;11802;53.160;8.214;2023-02-28T06:33:33;9.63;;;6.90;;
23266;SDS011;11802;53.160;8.214;2023-02-28T06:35:58;12.73;;;7.43;;
23266;SDS011;11802;53.160;8.214;2023-02-28T06:38:24;12.83;;;7.50;;
23266;SDS011;11802;53.160;8.214;2023-02-28T06:40:53;12.10;;;7.53;;
23266;SDS011;11802;53.160;8.214;2023-02-28T06:43:23;12.37;;;7.97;;
23266;SDS011;11802;53.160;8.214;2023-02-28T06:45:49;15.00;;;7.57;;
23266;SDS011;11802;53.160;8.214;2023-02-28T06:48:15;14.20;;;7.73;;
23266;SDS011;11802;53.160;8.214;2023-02-28T06:50:41;12.30;;;7.43;;
23266;SDS011;11802;53.160;8.214;2023-02-28T06:53:06;12.00;;;7.10;;
23266;SDS011;11802;53.160;8.214;2023-02-28T06:55:32;11.73;;;6.77;;
23266;SDS011;11802;53.160;8.214;2023-02-28T06:57:58;11.10;;;7.00;;
23266;SDS011;11802;53.160;8.214;2023-02-28T07:00:24;10.70;;;7.10;;
23266;SDS011;11802;53.160;8.214;2023-02-28T07:02:50;13.90;;;7.60;;
23266;SDS011;11802;53.160;8.214;2023-02-28T07:05:16;10.60;;;5.97;;
23266;SDS011;11802;53.160;8.214;2023-02-28T07:07:41;12.37;;;6.80;;
23266;SDS011;11802;53.160;8.214;2023-02-28T07:10:12;10.17;;;6.13;;
23266;SDS011;11802;53.160;8.214;2023-02-28T07:12:41;10.97;;;5.77;;
23266;SDS011;11802;53.160;8.214;2023-02-28T07:15:08;9.07;;;5.43;;
23266;SDS011;11802;53.160;8.214;2023-02-28T07:17:34;8.87;;;5.93;;
23266;SDS011;11802;53.160;8.214;2023-02-28T07:19:59;10.57;;;5.80;;
23266;SDS011;11802;53.160;8.214;2023-02-28T07:22:25;10.27;;;5.37;;
23266;SDS011;11802;53.160;8.214;2023-02-28T07:24:50;9.47;;;5.53;;
23266;SDS011;11802;53.160;8.214;2023-02-28T07:27:16;12.93;;;5.83;;
23266;SDS011;11802;53.160;8.214;2023-02-28T07:29:48;10.37;;;5.50;;
23266;SDS011;11802;53.160;8.214;2023-02-28T07:32:14;12.63;;;5.90;;
23266;SDS011;11802;53.160;8.214;2023-02-28T07:34:40;11.23;;;5.00;;
23266;SDS011;11802;53.160;8.214;2023-02-28T07:37:06;10.50;;;4.80;;
23266;SDS011;11802;53.160;8.214;2023-02-28T07:39:31;7.50;;;4.33;;
23266;SDS011;11802;53.160;8.214;2023-02-28T07:41:57;7.47;;;4.17;;
23266;SDS011;11802;53.160;8.214;2023-02-28T07:44:23;7.87;;;4.40;;
23266;SDS011;11802;53.160;8.214;2023-02-28T07:46:48;7.97;;;4.50;;
23266;SDS011;11802;53.160;8.214;2023-02-28T07:49:14;9.47;;;4.23;;
23266;SDS011;11802;53.160;8.214;2023-02-28T07:51:39;9.50;;;4.50;;
23266;SDS011;11802;53.160;8.214;2023-02-28T07:54:05;11.82;;;4.53;;
23266;SDS011;11802;53.160;8.214;2023-02-28T07:56:30;8.35;;;4.03;;
23266;SDS011;11802;53.160;8.214;2023-02-28T07:58:56;6.32;;;3.80;;
23266;SDS011;11802;53.160;8.214;2023-02-28T08:01:21;10.55;;;4.05;;
23266;SDS011;11802;53.160;8.214;2023-02-28T08:03:47;9.32;;;3.80;;
23266;SDS011;11802;53.160;8.214;2023-02-28T08:06:17;8.05;;;3.80;;
23266;SDS011;11802;53.160;8.214;2023-02-28T08:08:44;6.15;;;3.65;;
23266;SDS011;11802;53.160;8.214;2023-02-28T08:11:09;7.93;;;3.80;;
23266;SDS011;11802;53.160;8.214;2023-02-28T08:13:35;8.57;;;4.20;;
23266;SDS011;11802;53.160;8.214;2023-02-28T08:16:01;6.60;;;3.85;;
23266;SDS011;11802;53.160;8.214;2023-02-28T08:18:27;7.35;;;3.60;;
23266;SDS011;11802;53.160;8.214;2023-02-28T08:20:53;7.07;;;3.65;;
23266;SDS011;11802;53.160;8.214;2023-02-28T08:23:19;6.95;;;3.70;;
23266;SDS011;11802;53.160;8.214;2023-02-28T08:25:44;7.65;;;3.50;;
23266;SDS011;11802;53.160;8.214;2023-02-28T08:28:10;8.05;;;3.80;;
23266;SDS011;11802;53.160;8.214;2023-02-28T08:30:35;5.40;;;3.22;;
23266;SDS011;11802;53.160;8.214;2023-02-28T08:33:01;9.15;;;5.00;;
23266;SDS011;11802;53.160;8.214;2023-02-28T08:35:27;8.55;;;4.10;;
23266;SDS011;11802;53.160;8.214;2023-02-28T08:37:53;8.18;;;4.60;;
23266;SDS011;11802;53.160;8.214;2023-02-28T08:40:21;7.88;;;3.78;;
23266;SDS011;11802;53.160;8.214;2023-02-28T08:42:48;9.07;;;5.50;;
23266;SDS011;11802;53.160;8.214;2023-02-28T08:45:17;6.10;;;4.00;;
23266;SDS011;11802;53.160;8.214;2023-02-28T08:47:43;6.22;;;3.33;;
23266;SDS011;11802;53.160;8.214;2023-02-28T08:50:09;7.72;;;3.78;;
23266;SDS011;11802;53.160;8.214;2023-02-28T08:52:35;8.43;;;3.70;;
23266;SDS011;11802;53.160;8.214;2023-02-28T08:55:01;6.72;;;3.70;;
23266;SDS011;11802;53.160;8.214;2023-02-28T08:57:29;7.35;;;3.00;;
23266;SDS011;11802;53.160;8.214;2023-02-28T09:00:13;4.80;;;3.25;;
23266;SDS011;11802;53.160;8.214;2023-02-28T09:02:39;5.88;;;2.88;;
23266;SDS011;11802;53.160;8.214;2023-02-28T09:05:07;5.40;;;2.65;;
23266;SDS011;11802;53.160;8.214;2023-02-28T09:07:33;6.10;;;2.92;;
23266;SDS011;11802;53.160;8.214;2023-02-28T09:09:59;5.03;;;2.47;;
23266;SDS011;11802;53.160;8.214;2023-02-28T09:12:24;3.92;;;2.38;;
23266;SDS011;11802;53.160;8.214;2023-02-28T09:14:51;3.97;;;2.15;;
23266;SDS011;11802;53.160;8.214;2023-02-28T09:17:18;4.55;;;2.30;;
23266;SDS011;11802;53.160;8.214;2023-02-28T09:19:44;5.00;;;2.55;;
23266;SDS011;11802;53.160;8.214;2023-02-28T09:22:10;4.40;;;2.15;;
23266;SDS011;11802;53.160;8.214;2023-02-28T09:24:36;4.63;;;2.22;;
23266;SDS011;11802;53.160;8.214;2023-02-28T09:27:02;4.03;;;2.40;;
23266;SDS011;11802;53.160;8.214;2023-02-28T09:29:29;3.83;;;1.88;;
23266;SDS011;11802;53.160;8.214;2023-02-28T09:31:55;4.57;;;1.70;;
23266;SDS011;11802;53.160;8.214;2023-02-28T09:34:23;4.82;;;1.90;;
23266;SDS011;11802;53.160;8.214;2023-02-28T09:36:49;4.88;;;2.03;;
23266;SDS011;11802;53.160;8.214;2023-02-28T09:39:19;2.78;;;1.52;;
23266;SDS011;11802;53.160;8.214;2023-02-28T09:41:46;2.80;;;1.75;;
23266;SDS011;11802;53.160;8.214;2023-02-28T09:44:17;4.72;;;2.30;;
23266;SDS011;11802;53.160;8.214;2023-02-28T09:47:05;3.28;;;1.50;;
23266;SDS011;11802;53.160;8.214;2023-02-28T09:49:37;4.82;;;1.98;;
23266;SDS011;11802;53.160;8.214;2023-02-28T09:52:12;4.88;;;1.98;;
23266;SDS011;11802;53.160;8.214;2023-02-28T09:54:41;3.40;;;1.73;;
23266;SDS011;11802;53.160;8.214;2023-02-28T09:59:42;4.45;;;1.58;;
23266;SDS011;11802;53.160;8.214;2023-02-28T10:02:36;5.53;;;1.88;;
23266;SDS011;11802;53.160;8.214;2023-02-28T10:05:11;4.82;;;2.08;;
23266;SDS011;11802;53.160;8.214;2023-02-28T10:10:39;4.18;;;1.85;;
23266;SDS011;11802;53.160;8.214;2023-02-28T10:13:13;4.53;;;2.03;;
23266;SDS011;11802;53.160;8.214;2023-02-28T10:15:45;7.63;;;2.10;;
23266;SDS011;11802;53.160;8.214;2023-02-28T10:18:16;3.55;;;1.90;;
23266;SDS011;11802;53.160;8.214;2023-02-28T10:20:46;4.68;;;1.98;;
23266;SDS011;11802;53.160;8.214;2023-02-28T10:23:21;4.45;;;1.85;;
23266;SDS011;11802;53.160;8.214;2023-02-28T10:26:19;4.67;;;2.10;;
23266;SDS011;11802;53.160;8.214;2023-02-28T10:28:46;4.82;;;2.42;;
23266;SDS011;11802;53.160;8.214;2023-02-28T10:31:14;6.85;;;3.42;;
23266;SDS011;11802;53.160;8.214;2023-02-28T10:33:43;8.07;;;4.03;;
23266;SDS011;11802;53.160;8.214;2023-02-28T10:36:10;2.90;;;1.87;;
23266;SDS011;11802;53.160;8.214;2023-02-28T10:38:42;3.93;;;2.10;;
23266;SDS011;11802;53.160;8.214;2023-02-28T10:41:14;7.00;;;2.50;;
23266;SDS011;11802;53.160;8.214;2023-02-28T10:44:14;5.00;;;1.83;;
23266;SDS011;11802;53.160;8.214;2023-02-28T10:46:48;2.93;;;1.70;;
23266;SDS011;11802;53.160;8.214;2023-02-28T10:49:39;4.40;;;2.10;;
23266;SDS011;11802;53.160;8.214;2023-02-28T10:55:43;3.23;;;1.73;;
23266;SDS011;11802;53.160;8.214;2023-02-28T10:58:25;3.83;;;1.70;;
23266;SDS011;11802;53.160;8.214;2023-02-28T11:00:52;3.73;;;1.93;;
23266;SDS011;11802;53.160;8.214;2023-02-28T11:03:28;5.87;;;1.73;;
23266;SDS011;11802;53.160;8.214;2023-02-28T11:05:55;4.03;;;1.73;;
23266;SDS011;11802;53.160;8.214;2023-02-28T11:08:22;2.87;;;1.60;;
23266;SDS011;11802;53.160;8.214;2023-02-28T11:10:53;4.83;;;1.67;;
23266;SDS011;11802;53.160;8.214;2023-02-28T11:13:31;4.40;;;1.60;;
23266;SDS011;11802;53.160;8.214;2023-02-28T11:16:00;3.30;;;1.67;;
23266;SDS011;11802;53.160;8.214;2023-02-28T11:18:29;4.23;;;1.53;;
23266;SDS011;11802;53.160;8.214;2023-02-28T11:21:01;4.50;;;2.00;;
23266;SDS011;11802;53.160;8.214;2023-02-28T11:23:29;4.97;;;2.27;;
23266;SDS011;11802;53.160;8.214;2023-02-28T11:26:00;2.73;;;1.60;;
23266;SDS011;11802;53.160;8.214;2023-02-28T11:28:31;3.87;;;1.60;;
23266;SDS011;11802;53.160;8.214;2023-02-28T11:33:43;4.13;;;2.13;;
23266;SDS011;11802;53.160;8.214;2023-02-28T11:36:22;3.00;;;1.83;;
23266;SDS011;11802;53.160;8.214;2023-02-28T11:38:50;4.07;;;1.90;;
23266;SDS011;11802;53.160;8.214;2023-02-28T11:41:21;3.23;;;1.60;;
23266;SDS011;11802;53.160;8.214;2023-02-28T11:44:09;2.83;;;1.80;;
23266;SDS011;11802;53.160;8.214;2023-02-28T11:46:59;4.43;;;1.67;;
23266;SDS011;11802;53.160;8.214;2023-02-28T11:49:40;2.00;;;1.60;;
23266;SDS011;11802;53.160;8.214;2023-02-28T11:52:20;3.77;;;1.80;;
23266;SDS011;11802;53.160;8.214;2023-02-28T11:55:07;5.07;;;2.00;;
23266;SDS011;11802;53.160;8.214;2023-02-28T12:01:12;5.17;;;1.63;;
23266;SDS011;11802;53.160;8.214;2023-02-28T12:03:41;4.53;;;1.80;;
23266;SDS011;11802;53.160;8.214;2023-02-28T12:06:13;4.60;;;1.70;;
23266;SDS011;11802;53.160;8.214;2023-02-28T12:08:53;2.83;;;1.87;;
23266;SDS011;11802;53.160;8.214;2023-02-28T12:11:44;3.90;;;1.90;;
23266;SDS011;11802;53.160;8.214;2023-02-28T12:20:12;3.97;;;1.67;;
23266;SDS011;11802;53.160;8.214;2023-02-28T12:25:33;5.67;;;1.87;;
23266;SDS011;11802;53.160;8.214;2023-02-28T12:28:18;3.33;;;2.03;;
23266;SDS011;11802;53.160;8.214;2023-02-28T12:30:55;4.27;;;1.70;;
23266;SDS011;11802;53.160;8.214;2023-02-28T12:33:27;5.70;;;2.50;;
23266;SDS011;11802;53.160;8.214;2023-02-28T12:35:59;4.30;;;1.83;;
23266;SDS011;11802;53.160;8.214;2023-02-28T12:38:34;4.30;;;1.90;;
23266;SDS011;11802;53.160;8.214;2023-02-28T12:41:14;4.50;;;1.70;;
23266;SDS011;11802;53.160;8.214;2023-02-28T12:43:48;3.67;;;1.80;;
23266;SDS011;11802;53.160;8.214;2023-02-28T12:48:57;5.20;;;2.10;;
23266;SDS011;11802;53.160;8.214;2023-02-28T12:51:28;5.00;;;1.90;;
23266;SDS011;11802;53.160;8.214;2023-02-28T12:59:18;4.10;;;1.80;;
23266;SDS011;11802;53.160;8.214;2023-02-28T13:05:01;3.87;;;1.87;;
23266;SDS011;11802;53.160;8.214;2023-02-28T13:10:22;5.23;;;2.10;;
23266;SDS011;11802;53.160;8.214;2023-02-28T13:12:50;5.67;;;1.90;;
23266;SDS011;11802;53.160;8.214;2023-02-28T13:17:54;3.53;;;2.00;;
23266;SDS011;11802;53.160;8.214;2023-02-28T13:20:22;6.50;;;1.87;;
23266;SDS011;11802;53.160;8.214;2023-02-28T13:22:51;2.70;;;1.70;;
23266;SDS011;11802;53.160;8.214;2023-02-28T13:27:47;3.63;;;1.93;;
23266;SDS011;11802;53.160;8.214;2023-02-28T13:33:32;5.93;;;2.37;;
23266;SDS011;11802;53.160;8.214;2023-02-28T13:36:10;5.73;;;2.23;;
23266;SDS011;11802;53.160;8.214;2023-02-28T13:42:10;3.60;;;2.17;;
23266;SDS011;11802;53.160;8.214;2023-02-28T13:58:22;2.87;;;1.80;;
23266;SDS011;11802;53.160;8.214;2023-02-28T14:01:06;4.27;;;2.00;;
23266;SDS011;11802;53.160;8.214;2023-02-28T14:06:24;5.10;;;2.00;;
23266;SDS011;11802;53.160;8.214;2023-02-28T14:14:00;4.13;;;2.00;;
23266;SDS011;11802;53.160;8.214;2023-02-28T14:16:27;4.17;;;1.90;;
23266;SDS011;11802;53.160;8.214;2023-02-28T14:19:12;3.67;;;2.10;;
23266;SDS011;11802;53.160;8.214;2023-02-28T14:21:59;4.23;;;2.20;;
23266;SDS011;11802;53.160;8.214;2023-02-28T14:24:56;3.73;;;2.10;;
23266;SDS011;11802;53.160;8.214;2023-02-28T14:28:04;6.00;;;2.60;;
23266;SDS011;11802;53.160;8.214;2023-02-28T14:36:03;5.23;;;2.43;;
23266;SDS011;11802;53.160;8.214;2023-02-28T14:38:58;4.47;;;2.00;;
23266;SDS011;11802;53.160;8.214;2023-02-28T14:41:33;3.60;;;2.27;;
23266;SDS011;11802;53.160;8.214;2023-02-28T14:44:13;3.27;;;2.20;;
23266;SDS011;11802;53.160;8.214;2023-02-28T14:46:42;4.17;;;2.53;;
23266;SDS011;11802;53.160;8.214;2023-02-28T14:49:13;5.07;;;2.47;;
23266;SDS011;11802;53.160;8.214;2023-02-28T14:52:13;2.57;;;1.80;;
23266;SDS011;11802;53.160;8.214;2023-02-28T14:54:52;6.13;;;2.93;;
23266;SDS011;11802;53.160;8.214;2023-02-28T14:57:20;5.67;;;2.63;;
23266;SDS011;11802;53.160;8.214;2023-02-28T14:59:56;3.50;;;2.40;;
23266;SDS011;11802;53.160;8.214;2023-02-28T15:02:42;6.07;;;2.47;;
23266;SDS011;11802;53.160;8.214;2023-02-28T15:07:42;4.50;;;2.53;;
23266;SDS011;11802;53.160;8.214;2023-02-28T15:10:20;6.07;;;2.60;;
23266;SDS011;11802;53.160;8.214;2023-02-28T15:13:01;5.97;;;3.07;;
23266;SDS011;11802;53.160;8.214;2023-02-28T15:20:52;4.43;;;2.60;;
23266;SDS011;11802;53.160;8.214;2023-02-28T15:23:19;3.77;;;2.53;;
23266;SDS011;11802;53.160;8.214;2023-02-28T15:25:46;10.03;;;2.90;;
23266;SDS011;11802;53.160;8.214;2023-02-28T15:28:16;5.93;;;2.50;;
23266;SDS011;11802;53.160;8.214;2023-02-28T15:31:17;3.73;;;2.63;;
23266;SDS011;11802;53.160;8.214;2023-02-28T15:33:52;5.23;;;2.47;;
23266;SDS011;11802;53.160;8.214;2023-02-28T15:36:19;3.83;;;2.40;;
23266;SDS011;11802;53.160;8.214;2023-02-28T15:38:50;5.30;;;2.90;;
23266;SDS011;11802;53.160;8.214;2023-02-28T15:41:30;5.73;;;2.40;;
23266;SDS011;11802;53.160;8.214;2023-02-28T15:49:24;6.87;;;2.80;;
23266;SDS011;11802;53.160;8.214;2023-02-28T15:51:51;5.67;;;2.77;;
23266;SDS011;11802;53.160;8.214;2023-02-28T15:54:23;4.53;;;2.53;;
23266;SDS011;11802;53.160;8.214;2023-02-28T15:56:52;5.07;;;2.63;;
23266;SDS011;11802;53.160;8.214;2023-02-28T15:59:27;3.60;;;2.40;;
23266;SDS011;11802;53.160;8.214;2023-02-28T16:07:22;5.13;;;2.63;;
23266;SDS011;11802;53.160;8.214;2023-02-28T16:09:49;5.80;;;2.70;;
23266;SDS011;11802;53.160;8.214;2023-02-28T16:12:14;5.27;;;2.60;;
23266;SDS011;11802;53.160;8.214;2023-02-28T16:14:40;5.80;;;3.00;;
23266;SDS011;11802;53.160;8.214;2023-02-28T16:17:08;6.27;;;2.90;;
23266;SDS011;11802;53.160;8.214;2023-02-28T16:19:48;3.57;;;2.60;;
23266;SDS011;11802;53.160;8.214;2023-02-28T16:22:14;4.57;;;2.87;;
23266;SDS011;11802;53.160;8.214;2023-02-28T16:24:39;5.70;;;2.60;;
23266;SDS011;11802;53.160;8.214;2023-02-28T16:27:06;6.50;;;3.20;;
23266;SDS011;11802;53.160;8.214;2023-02-28T16:29:46;5.13;;;2.50;;
23266;SDS011;11802;53.160;8.214;2023-02-28T16:32:13;4.40;;;2.30;;
23266;SDS011;11802;53.160;8.214;2023-02-28T16:34:40;6.47;;;2.70;;
23266;SDS011;11802;53.160;8.214;2023-02-28T16:37:11;6.07;;;2.57;;
23266;SDS011;11802;53.160;8.214;2023-02-28T16:39:42;5.23;;;2.67;;
23266;SDS011;11802;53.160;8.214;2023-02-28T16:42:10;7.13;;;2.43;;
23266;SDS011;11802;53.160;8.214;2023-02-28T16:44:41;4.83;;;2.30;;
23266;SDS011;11802;53.160;8.214;2023-02-28T16:47:09;6.00;;;2.43;;
23266;SDS011;11802;53.160;8.214;2023-02-28T16:49:35;5.60;;;3.07;;
23266;SDS011;11802;53.160;8.214;2023-02-28T16:52:01;4.03;;;2.50;;
23266;SDS011;11802;53.160;8.214;2023-02-28T16:54:26;4.53;;;2.63;;
23266;SDS011;11802;53.160;8.214;2023-02-28T16:56:52;8.90;;;2.63;;
23266;SDS011;11802;53.160;8.214;2023-02-28T16:59:19;4.47;;;2.70;;
23266;SDS011;11802;53.160;8.214;2023-02-28T17:01:48;6.20;;;3.80;;